Palava, Texas
Current Conditions -  °F | °C
As of 9:15 AM on Friday 31 Oct 2014 (Local Time) from KSWW Reporting Station
Clear Clear  
Wind Chill: 53°   Ceiling: Unl
Heat Index: 53°   Visibility: 10mi
Dew Point: 34°   Wind: 10mph
Humidity: 49%   Direction: 10°N
Pressure: 30.42"   Gusts: 16mph
Location:  32.5104°N, 100.305°W
Report Text: KSWW 311415Z AUTO 01009G14KT 10SM CLR 12/01 A3042 RMK AO2 T01150011
Loading
Personal Weather Stations






























Interactive Weather Map New forecast layout! Learn more

10-Day Weather Forecast

Advertisements
Track Severe Weather on mobile